Time;durP1;ratioP1;P1;durP2;ratioP2;P2;SDS_P1;SDS_P2;PMS_P1;PMS_P2;Temp;Humidity;BMP_temperature;BMP_pressure;BME280_temperature;BME280_humidity;BME280_pressure;Samples;Min_cycle;Max_cycle;Signal;HPM_P1;HPM_P2
2021/01/28 00:01:52;;;;;;;17.47;13.93;;;2.10;91.20;;;;;;5035472;28;20926;-78
2021/01/28 00:04:18;;;;;;;15.60;12.93;;;2.10;91.40;;;;;;5037301;28;20493;-77
2021/01/28 00:06:45;;;;;;;14.63;12.70;;;2.10;91.20;;;;;;5041128;28;20456;-77
2021/01/28 00:09:11;;;;;;;18.47;14.13;;;2.20;91.20;;;;;;5037122;28;20513;-78
2021/01/28 00:11:37;;;;;;;19.57;13.70;;;2.20;91.30;;;;;;5045939;28;20449;-78
2021/01/28 00:14:04;;;;;;;17.20;14.37;;;2.30;92.10;;;;;;5033702;28;20468;-78
2021/01/28 00:16:30;;;;;;;17.50;14.47;;;2.20;91.20;;;;;;5040938;28;20502;-77
2021/01/28 00:18:58;;;;;;;16.33;13.20;;;2.20;90.80;;;;;;5041558;28;20453;-77
2021/01/28 00:21:24;;;;;;;17.57;14.27;;;2.30;91.40;;;;;;5047012;28;20574;-77
2021/01/28 00:23:50;;;;;;;17.47;13.77;;;2.30;91.10;;;;;;5040885;28;20521;-77
2021/01/28 00:26:17;;;;;;;15.87;13.90;;;2.30;90.80;;;;;;5045377;28;20459;-79
2021/01/28 00:28:44;;;;;;;18.40;13.80;;;2.30;91.10;;;;;;5043872;28;20553;-77
2021/01/28 00:31:10;;;;;;;16.40;12.90;;;2.20;90.80;;;;;;5045839;28;20548;-77
2021/01/28 00:33:37;;;;;;;15.23;13.03;;;2.30;91.20;;;;;;5038529;28;20491;-78
2021/01/28 00:36:08;;;;;;;17.40;12.60;;;2.30;90.80;;;;;;5042701;28;20489;-78
2021/01/28 00:38:37;;;;;;;18.33;14.80;;;2.20;90.60;;;;;;5039012;28;21020;-77
2021/01/28 00:41:07;;;;;;;15.97;13.90;;;2.30;91.50;;;;;;5047152;28;20482;-78
2021/01/28 00:43:33;;;;;;;16.00;13.03;;;2.30;91.10;;;;;;5043368;28;20470;-77
2021/01/28 00:46:00;;;;;;;17.20;14.13;;;2.30;90.70;;;;;;5040571;28;20480;-78
2021/01/28 00:48:27;;;;;;;17.53;12.90;;;2.30;91.20;;;;;;5039457;28;20555;-78
2021/01/28 00:50:55;;;;;;;14.87;12.63;;;2.30;91.50;;;;;;5036804;28;20533;-78
2021/01/28 00:53:24;;;;;;;15.73;13.60;;;2.40;91.10;;;;;;5045471;28;20532;-77
2021/01/28 00:55:51;;;;;;;14.87;12.73;;;2.30;90.80;;;;;;5048928;28;20994;-77
2021/01/28 00:58:20;;;;;;;18.57;14.17;;;2.20;91.40;;;;;;5044323;28;20539;-78
2021/01/28 01:00:48;;;;;;;17.60;13.10;;;2.20;91.80;;;;;;5037332;28;20464;-78
2021/01/28 01:03:16;;;;;;;16.13;12.67;;;2.20;91.80;;;;;;5037719;28;20519;-77
2021/01/28 01:05:44;;;;;;;18.03;13.80;;;2.30;91.80;;;;;;5042588;28;20456;-76
2021/01/28 01:08:13;;;;;;;16.67;13.10;;;2.30;91.80;;;;;;5041729;28;20487;-77
2021/01/28 01:10:43;;;;;;;16.13;12.30;;;2.20;92.10;;;;;;5040722;28;20481;-77
2021/01/28 01:13:14;;;;;;;18.17;12.83;;;2.20;92.00;;;;;;5044612;28;20448;-77
2021/01/28 01:15:40;;;;;;;16.80;13.50;;;2.30;92.80;;;;;;5043722;28;20510;-78
2021/01/28 01:18:09;;;;;;;17.40;13.87;;;2.20;92.00;;;;;;5042032;28;20510;-77
2021/01/28 01:20:35;;;;;;;18.30;12.63;;;2.30;91.80;;;;;;5040728;28;20449;-78
2021/01/28 01:23:01;;;;;;;16.47;12.50;;;2.30;91.80;;;;;;5046880;28;20555;-77
2021/01/28 01:25:28;;;;;;;16.43;13.20;;;2.40;92.10;;;;;;5038969;28;20495;-77
2021/01/28 01:27:55;;;;;;;16.17;13.53;;;2.40;91.80;;;;;;5040184;28;20543;-77
2021/01/28 01:30:24;;;;;;;18.40;14.40;;;2.40;91.40;;;;;;5043869;28;20472;-77
2021/01/28 01:32:51;;;;;;;17.63;13.40;;;2.40;91.40;;;;;;5042946;28;20442;-76
2021/01/28 01:35:20;;;;;;;19.13;14.20;;;2.30;91.50;;;;;;5042093;28;20540;-76
2021/01/28 01:37:47;;;;;;;17.63;13.17;;;2.40;91.90;;;;;;5044139;28;20452;-76
2021/01/28 01:40:17;;;;;;;19.10;14.10;;;2.40;91.60;;;;;;5044359;28;20540;-76
2021/01/28 01:42:45;;;;;;;17.40;12.73;;;2.40;91.50;;;;;;5042634;28;20555;-76
2021/01/28 01:45:13;;;;;;;19.47;14.10;;;2.40;91.70;;;;;;5039356;28;20445;-76
2021/01/28 01:47:45;;;;;;;19.27;13.70;;;2.40;92.30;;;;;;5040303;28;20535;-77
2021/01/28 01:50:28;;;;;;;19.23;14.10;;;2.40;92.40;;;;;;5047264;28;20465;-77
2021/01/28 01:52:56;;;;;;;17.60;12.97;;;2.40;92.20;;;;;;5037191;28;20548;-77
2021/01/28 01:55:22;;;;;;;18.17;14.30;;;2.40;92.20;;;;;;5041904;28;20499;-77
2021/01/28 01:57:49;;;;;;;16.90;13.07;;;2.40;91.60;;;;;;5045924;28;21065;-77
2021/01/28 02:00:21;;;;;;;20.07;14.13;;;2.40;91.80;;;;;;5048833;28;20490;-77
2021/01/28 02:02:50;;;;;;;18.00;14.03;;;2.40;91.90;;;;;;5038477;28;20556;-77
2021/01/28 02:05:22;;;;;;;15.17;12.27;;;2.40;92.40;;;;;;5046105;28;20484;-76
2021/01/28 02:07:50;;;;;;;18.40;13.80;;;2.40;92.60;;;;;;5043512;28;20483;-77
2021/01/28 02:10:17;;;;;;;19.90;13.37;;;2.50;92.50;;;;;;5047833;28;20525;-77
2021/01/28 02:12:43;;;;;;;19.07;13.60;;;2.50;92.60;;;;;;5051866;28;20550;-77
2021/01/28 02:15:11;;;;;;;19.10;14.00;;;2.60;92.50;;;;;;5047597;28;20441;-77
2021/01/28 02:17:41;;;;;;;20.60;14.33;;;2.50;92.30;;;;;;5045059;28;20567;-76
2021/01/28 02:20:35;;;;;;;17.63;13.37;;;2.40;92.30;;;;;;5044347;28;20470;-76
2021/01/28 02:23:08;;;;;;;17.23;14.03;;;2.50;92.30;;;;;;5040458;28;20916;-77
2021/01/28 02:25:37;;;;;;;18.13;14.47;;;2.50;92.00;;;;;;5038570;28;20450;-77
2021/01/28 02:28:08;;;;;;;18.27;15.07;;;2.50;91.80;;;;;;5036868;28;20460;-77
2021/01/28 02:30:37;;;;;;;19.97;14.50;;;2.50;91.70;;;;;;5040414;28;20536;-77
2021/01/28 02:33:06;;;;;;;17.97;14.70;;;2.50;91.70;;;;;;5041749;28;22060;-77
2021/01/28 02:35:35;;;;;;;17.80;13.73;;;2.50;91.70;;;;;;5039507;28;20449;-77
2021/01/28 02:38:04;;;;;;;19.27;15.00;;;2.50;91.80;;;;;;5044943;28;20443;-77
2021/01/28 02:40:31;;;;;;;20.70;15.07;;;2.50;92.20;;;;;;5050929;28;20445;-77
2021/01/28 02:42:59;;;;;;;21.10;15.00;;;2.50;92.30;;;;;;5041417;28;20982;-77
2021/01/28 02:45:29;;;;;;;22.53;15.33;;;2.50;92.30;;;;;;5033922;28;20872;-77
2021/01/28 02:47:58;;;;;;;20.77;15.40;;;2.50;92.40;;;;;;5034013;28;20919;-77
2021/01/28 02:50:24;;;;;;;19.13;14.70;;;2.50;92.40;;;;;;5038076;28;20497;-77
2021/01/28 02:52:53;;;;;;;20.73;14.87;;;2.50;92.40;;;;;;5034958;28;20449;-77
2021/01/28 02:55:20;;;;;;;20.50;15.30;;;2.50;92.50;;;;;;5044151;28;20495;-77
2021/01/28 02:57:47;;;;;;;20.50;15.10;;;2.50;92.50;;;;;;5041454;28;20568;-78
2021/01/28 03:00:17;;;;;;;19.50;14.37;;;2.60;92.40;;;;;;5037108;28;21060;-80
2021/01/28 03:02:43;;;;;;;19.07;14.50;;;2.50;92.50;;;;;;5040333;28;20534;-77
2021/01/28 03:05:10;;;;;;;18.70;14.67;;;2.50;92.50;;;;;;5039968;28;20451;-78
2021/01/28 03:07:37;;;;;;;19.90;14.80;;;2.50;92.50;;;;;;5040939;28;20487;-79
2021/01/28 03:10:04;;;;;;;19.20;14.47;;;2.60;92.60;;;;;;5042531;28;20877;-78
2021/01/28 03:12:30;;;;;;;20.20;14.83;;;2.60;92.50;;;;;;5044054;28;20459;-76
2021/01/28 03:14:57;;;;;;;18.40;13.67;;;2.60;92.20;;;;;;5038370;28;20540;-79
2021/01/28 03:17:24;;;;;;;18.50;13.80;;;2.60;92.10;;;;;;5042632;28;20468;-79
2021/01/28 03:19:51;;;;;;;17.80;13.00;;;2.70;92.00;;;;;;5044352;28;20477;-76
2021/01/28 03:22:17;;;;;;;17.97;13.60;;;2.70;91.70;;;;;;5041294;28;20507;-77
2021/01/28 03:24:43;;;;;;;19.17;14.07;;;2.60;91.80;;;;;;5049243;28;20490;-79
2021/01/28 03:27:11;;;;;;;19.20;14.87;;;2.70;91.60;;;;;;5049294;28;20453;-79
2021/01/28 03:29:37;;;;;;;19.43;14.63;;;2.80;91.80;;;;;;5050474;28;20455;-79
2021/01/28 03:32:04;;;;;;;19.83;13.80;;;2.70;91.60;;;;;;5040562;28;20453;-78
2021/01/28 03:34:31;;;;;;;17.63;13.70;;;2.70;91.40;;;;;;5049654;28;20462;-78
2021/01/28 03:36:57;;;;;;;18.50;13.53;;;2.70;91.60;;;;;;5041678;28;20962;-78
2021/01/28 03:39:24;;;;;;;19.03;13.53;;;2.80;91.60;;;;;;5041300;28;20838;-78
2021/01/28 03:41:50;;;;;;;18.03;12.77;;;2.80;91.40;;;;;;5036144;28;21382;-78
2021/01/28 03:44:17;;;;;;;20.37;13.93;;;2.70;91.20;;;;;;5047210;28;20477;-78
2021/01/28 03:46:43;;;;;;;15.83;12.47;;;2.70;91.00;;;;;;5042435;28;20559;-78
2021/01/28 03:49:09;;;;;;;20.43;13.63;;;2.70;91.20;;;;;;5043006;28;20796;-79
2021/01/28 03:51:37;;;;;;;16.97;12.30;;;2.70;91.60;;;;;;5038917;28;20595;-77
2021/01/28 03:54:03;;;;;;;15.90;13.03;;;2.70;91.20;;;;;;5044120;28;20986;-79
2021/01/28 03:56:30;;;;;;;15.57;12.83;;;2.70;91.20;;;;;;5035839;28;20456;-76
2021/01/28 03:58:56;;;;;;;17.73;13.03;;;2.70;91.10;;;;;;5046791;28;20498;-78
2021/01/28 04:01:22;;;;;;;18.13;13.27;;;2.70;91.20;;;;;;5048883;28;20539;-78
2021/01/28 04:03:49;;;;;;;15.87;11.73;;;2.70;91.50;;;;;;5046061;28;20498;-78
2021/01/28 04:06:15;;;;;;;19.57;13.90;;;2.70;91.40;;;;;;5042421;28;20980;-78
2021/01/28 04:08:42;;;;;;;17.13;13.27;;;2.70;91.20;;;;;;5040846;28;20497;-78
2021/01/28 04:11:09;;;;;;;14.27;11.60;;;2.70;91.30;;;;;;5049963;28;20476;-78
2021/01/28 04:13:35;;;;;;;15.93;12.67;;;2.70;91.50;;;;;;5059149;28;20493;-79
2021/01/28 04:16:02;;;;;;;18.20;12.77;;;2.70;91.50;;;;;;5063244;28;20452;-79
2021/01/28 04:18:28;;;;;;;18.47;12.63;;;2.70;92.00;;;;;;5045858;28;20504;-80
2021/01/28 04:20:54;;;;;;;15.70;12.67;;;2.70;92.00;;;;;;5047017;28;20483;-78
2021/01/28 04:23:21;;;;;;;17.27;12.70;;;2.70;92.00;;;;;;5042422;28;20497;-78
2021/01/28 04:25:48;;;;;;;17.77;12.60;;;2.70;92.00;;;;;;5045875;28;20489;-79
2021/01/28 04:28:14;;;;;;;17.47;13.37;;;2.70;92.00;;;;;;5038641;28;20451;-80
2021/01/28 04:30:41;;;;;;;19.10;12.30;;;2.70;92.30;;;;;;5045186;28;20451;-79
2021/01/28 04:33:08;;;;;;;16.20;12.37;;;2.70;92.30;;;;;;5040825;28;20456;-77
2021/01/28 04:35:35;;;;;;;15.23;12.23;;;2.70;92.50;;;;;;5047160;28;20448;-78
2021/01/28 04:38:01;;;;;;;17.70;12.40;;;2.70;92.50;;;;;;5042855;28;20460;-77
2021/01/28 04:40:32;;;;;;;18.93;12.40;;;2.80;92.20;;;;;;5043977;28;20495;-79
2021/01/28 04:43:05;;;;;;;17.30;12.90;;;2.80;92.20;;;;;;5038294;28;20462;-78
2021/01/28 04:45:32;;;;;;;19.03;13.07;;;2.80;92.30;;;;;;5041570;28;20492;-79
2021/01/28 04:48:03;;;;;;;19.70;13.47;;;2.80;92.30;;;;;;5038103;28;20484;-81
2021/01/28 04:50:32;;;;;;;18.63;11.80;;;2.70;92.20;;;;;;5046764;28;20492;-81
2021/01/28 04:53:04;;;;;;;20.80;13.37;;;2.80;92.50;;;;;;5045031;28;20463;-78
2021/01/28 04:55:36;;;;;;;17.80;12.90;;;2.80;92.40;;;;;;5044054;28;20962;-78
2021/01/28 04:58:04;;;;;;;17.17;11.77;;;2.80;92.50;;;;;;5045335;28;20542;-78
2021/01/28 05:00:31;;;;;;;17.63;12.27;;;2.80;92.60;;;;;;5043716;28;21493;-78
2021/01/28 05:03:07;;;;;;;16.90;11.93;;;2.80;92.40;;;;;;5042837;28;20488;-78
2021/01/28 05:05:33;;;;;;;17.17;12.30;;;2.90;92.20;;;;;;5042765;28;20523;-78
2021/01/28 05:08:00;;;;;;;16.37;12.37;;;2.80;92.00;;;;;;5038303;28;20546;-80
2021/01/28 05:10:41;;;;;;;15.10;11.57;;;2.90;92.10;;;;;;5036871;28;20504;-78
2021/01/28 05:13:08;;;;;;;20.23;12.43;;;2.80;92.00;;;;;;5045234;28;20459;-78
2021/01/28 05:15:37;;;;;;;16.20;12.30;;;2.90;92.10;;;;;;5046352;28;20464;-78
2021/01/28 05:18:16;;;;;;;15.00;12.10;;;2.90;91.90;;;;;;5039297;28;20546;-80
2021/01/28 05:20:44;;;;;;;16.60;11.60;;;2.90;92.10;;;;;;5040722;28;20476;-78
2021/01/28 05:23:28;;;;;;;17.70;12.20;;;2.90;91.90;;;;;;5042455;28;21007;-78
2021/01/28 05:25:55;;;;;;;16.67;12.50;;;2.90;91.80;;;;;;5039008;28;20483;-79
2021/01/28 05:28:26;;;;;;;17.33;12.57;;;2.90;91.70;;;;;;5046298;28;20471;-77
2021/01/28 05:30:53;;;;;;;15.30;11.67;;;3.00;91.90;;;;;;5039534;28;20527;-77
2021/01/28 05:33:35;;;;;;;16.00;12.60;;;3.00;91.50;;;;;;5047801;28;20448;-78
2021/01/28 05:36:15;;;;;;;20.47;12.43;;;3.00;91.40;;;;;;5037149;28;20510;-79
2021/01/28 05:38:43;;;;;;;18.47;11.83;;;3.00;91.60;;;;;;5047507;28;20554;-79
2021/01/28 05:41:13;;;;;;;16.37;11.30;;;3.00;91.80;;;;;;5051217;28;20467;-78
2021/01/28 05:43:43;;;;;;;18.70;13.17;;;3.00;91.70;;;;;;5050244;28;20463;-79
2021/01/28 05:46:16;;;;;;;14.93;10.40;;;3.00;91.60;;;;;;5048037;28;20979;-81
2021/01/28 05:48:43;;;;;;;19.03;11.83;;;3.00;91.40;;;;;;5053167;28;20477;-78
2021/01/28 05:51:16;;;;;;;18.20;13.97;;;3.00;91.50;;;;;;5049242;28;20477;-79
2021/01/28 05:53:58;;;;;;;20.17;13.30;;;3.00;91.50;;;;;;5052081;28;20523;-79
2021/01/28 05:56:27;;;;;;;16.87;12.40;;;3.00;91.50;;;;;;5048086;28;20492;-78
2021/01/28 05:58:59;;;;;;;16.90;12.03;;;3.10;91.50;;;;;;5053485;28;20827;-78
2021/01/28 06:01:53;;;;;;;17.77;11.53;;;3.10;91.20;;;;;;5045517;28;20456;-78
2021/01/28 06:04:49;;;;;;;18.13;12.30;;;3.00;91.30;;;;;;5048747;28;20552;-78
2021/01/28 06:07:56;;;;;;;15.77;11.87;;;3.00;91.30;;;;;;5047032;28;20468;-77
2021/01/28 06:10:59;;;;;;;17.50;11.60;;;3.00;91.30;;;;;;5044244;28;20453;-78
2021/01/28 06:14:14;;;;;;;19.33;13.17;;;3.00;91.10;;;;;;5041117;28;20876;-81
2021/01/28 06:16:51;;;;;;;16.50;12.27;;;3.10;91.40;;;;;;4980185;28;22829;-79
2021/01/28 06:19:43;;;;;;;17.70;13.37;;;3.10;91.40;;;;;;5039480;28;20446;-80
2021/01/28 06:22:19;;;;;;;16.30;12.47;;;3.10;90.90;;;;;;5042289;28;21255;-80
2021/01/28 06:25:28;;;;;;;16.80;13.10;;;3.10;90.90;;;;;;5043252;28;20499;-79
2021/01/28 06:28:24;;;;;;;15.80;12.63;;;3.20;90.60;;;;;;5023819;28;20464;-78
2021/01/28 06:31:02;;;;;;;15.90;12.07;;;3.00;90.30;;;;;;5042768;28;20473;-78
2021/01/28 06:34:00;;;;;;;17.10;12.77;;;3.10;91.10;;;;;;5038681;28;21146;-78
2021/01/28 06:36:47;;;;;;;20.00;13.10;;;3.10;90.80;;;;;;5044263;28;20464;-78
2021/01/28 06:39:21;;;;;;;18.80;13.30;;;3.20;91.00;;;;;;5048038;28;20503;-81
2021/01/28 06:41:57;;;;;;;14.27;11.90;;;3.20;90.90;;;;;;5044775;28;20536;-78
2021/01/28 06:44:34;;;;;;;19.70;13.83;;;3.20;90.80;;;;;;5040864;28;20584;-78
2021/01/28 06:47:08;;;;;;;16.73;13.37;;;3.20;90.50;;;;;;5044799;28;20602;-78
2021/01/28 06:49:46;;;;;;;18.47;13.17;;;3.20;90.40;;;;;;5047392;28;20494;-78
2021/01/28 06:52:40;;;;;;;17.07;13.37;;;3.20;90.10;;;;;;5039926;28;20911;-78
2021/01/28 06:55:13;;;;;;;16.50;11.80;;;3.10;90.30;;;;;;5034468;28;20531;-78
2021/01/28 06:57:46;;;;;;;18.90;12.67;;;3.00;90.10;;;;;;5041945;28;20467;-79
2021/01/28 07:00:21;;;;;;;15.93;12.10;;;3.10;90.60;;;;;;5041434;28;20485;-77
2021/01/28 07:03:01;;;;;;;16.23;13.27;;;2.90;90.90;;;;;;5040838;28;20495;-80
2021/01/28 07:05:52;;;;;;;17.57;12.77;;;2.90;91.20;;;;;;5042619;28;20463;-79
2021/01/28 07:09:06;;;;;;;17.83;12.83;;;2.80;90.90;;;;;;5038078;28;21028;-81
2021/01/28 07:11:36;;;;;;;18.90;13.03;;;2.80;90.80;;;;;;4991223;28;20453;-81
2021/01/28 07:14:04;;;;;;;20.23;14.73;;;2.80;91.50;;;;;;5041861;28;20477;-81
2021/01/28 07:16:39;;;;;;;20.67;15.30;;;2.80;91.40;;;;;;5060968;28;20445;-81
2021/01/28 07:19:17;;;;;;;20.27;14.30;;;2.70;91.40;;;;;;5061829;28;20451;-80
2021/01/28 07:21:47;;;;;;;19.30;13.80;;;2.80;91.70;;;;;;5048306;28;20465;-80
2021/01/28 07:24:30;;;;;;;18.53;13.80;;;2.80;91.30;;;;;;5047288;28;21011;-81
2021/01/28 07:27:00;;;;;;;18.90;14.33;;;2.80;91.40;;;;;;5046461;28;20448;-80
2021/01/28 07:29:54;;;;;;;20.40;14.87;;;2.80;91.20;;;;;;5054426;28;20524;-80
2021/01/28 07:32:50;;;;;;;20.23;15.10;;;2.70;90.90;;;;;;5055253;28;20527;-82
2021/01/28 07:35:44;;;;;;;21.90;14.97;;;2.80;90.90;;;;;;5057164;28;20533;-80
2021/01/28 07:38:57;;;;;;;20.43;15.50;;;2.80;90.50;;;;;;5046705;28;20452;-80
2021/01/28 07:41:55;;;;;;;20.63;13.80;;;2.80;90.80;;;;;;5032039;28;20457;-75
2021/01/28 07:44:44;;;;;;;19.43;14.67;;;2.80;90.70;;;;;;5036366;28;20473;-75
2021/01/28 07:47:30;;;;;;;20.83;15.70;;;2.90;91.20;;;;;;5031862;28;21061;-75
2021/01/28 07:50:14;;;;;;;18.23;13.27;;;2.90;90.70;;;;;;5032867;28;20456;-77
2021/01/28 07:52:43;;;;;;;21.33;15.00;;;2.80;90.00;;;;;;5039884;28;20456;-75
2021/01/28 07:55:43;;;;;;;20.90;13.83;;;3.10;91.20;;;;;;5037581;28;20780;-75
2021/01/28 07:58:31;;;;;;;19.70;15.17;;;3.10;90.00;;;;;;5039554;28;20884;-76
2021/01/28 08:01:03;;;;;;;20.90;16.20;;;3.10;90.30;;;;;;5039073;28;20448;-77
2021/01/28 08:03:34;;;;;;;19.20;14.60;;;3.10;89.80;;;;;;5047742;28;20212;-77
2021/01/28 08:06:06;;;;;;;19.43;15.23;;;3.20;90.20;;;;;;5047175;28;20468;-78
2021/01/28 08:08:33;;;;;;;21.90;15.40;;;3.30;89.50;;;;;;5043958;28;20457;-78
2021/01/28 08:11:14;;;;;;;20.83;15.00;;;3.20;87.90;;;;;;5040144;28;20461;-79
2021/01/28 08:13:42;;;;;;;22.00;15.17;;;3.20;88.30;;;;;;5045770;28;20459;-78
2021/01/28 08:16:16;;;;;;;20.90;14.80;;;3.30;87.90;;;;;;5047199;28;20487;-80
2021/01/28 08:18:43;;;;;;;18.67;13.07;;;3.30;87.20;;;;;;5044158;28;20466;-78
2021/01/28 08:21:12;;;;;;;20.77;16.03;;;3.30;88.60;;;;;;5047465;28;20567;-76
2021/01/28 08:23:40;;;;;;;20.73;15.70;;;3.30;87.30;;;;;;5041528;28;20467;-78
2021/01/28 08:26:09;;;;;;;22.43;16.50;;;3.30;87.40;;;;;;5048673;28;20498;-78
2021/01/28 08:28:38;;;;;;;24.50;15.70;;;3.50;88.80;;;;;;5044274;28;20452;-81
2021/01/28 08:31:17;;;;;;;22.83;16.30;;;3.50;88.70;;;;;;5051110;28;20461;-79
2021/01/28 08:33:45;;;;;;;21.40;16.57;;;3.60;88.80;;;;;;5048633;28;20568;-78
2021/01/28 08:36:22;;;;;;;25.63;17.47;;;3.60;87.90;;;;;;5044950;28;20499;-79
2021/01/28 08:38:49;;;;;;;24.47;16.87;;;3.70;87.30;;;;;;5044536;28;20471;-79
2021/01/28 08:41:27;;;;;;;24.30;17.47;;;3.60;87.10;;;;;;5046027;28;20487;-78
2021/01/28 08:43:59;;;;;;;23.87;17.37;;;3.70;87.10;;;;;;5044087;28;20561;-79
2021/01/28 08:46:26;;;;;;;23.13;16.50;;;3.70;86.60;;;;;;5046613;28;20441;-79
2021/01/28 08:49:04;;;;;;;24.70;17.40;;;3.70;86.50;;;;;;5045243;28;20466;-79
2021/01/28 08:51:31;;;;;;;24.70;16.80;;;3.70;86.80;;;;;;5056741;28;20449;-82
2021/01/28 08:54:02;;;;;;;22.63;16.13;;;3.70;87.40;;;;;;5049718;28;20449;-80
2021/01/28 08:56:34;;;;;;;22.73;17.00;;;3.70;86.80;;;;;;5050203;28;20452;-81
2021/01/28 08:59:03;;;;;;;23.97;17.03;;;3.70;87.00;;;;;;5058578;28;20456;-79
2021/01/28 09:01:35;;;;;;;23.23;16.30;;;3.70;86.50;;;;;;5063567;28;20453;-79
2021/01/28 09:04:08;;;;;;;26.47;17.87;;;3.70;87.30;;;;;;5056470;28;20473;-78
2021/01/28 09:06:40;;;;;;;21.77;16.20;;;3.70;88.00;;;;;;5051313;28;20453;-78
2021/01/28 09:09:17;;;;;;;25.50;17.60;;;3.70;87.60;;;;;;5055209;28;20473;-81
2021/01/28 09:11:43;;;;;;;22.37;16.70;;;3.80;88.00;;;;;;5066286;28;20448;-79
2021/01/28 09:14:34;;;;;;;23.03;17.00;;;3.80;87.70;;;;;;5060087;28;20537;-79
2021/01/28 09:17:04;;;;;;;24.40;18.30;;;3.70;88.90;;;;;;5055880;28;20484;-79
2021/01/28 09:19:33;;;;;;;25.50;18.47;;;3.70;88.30;;;;;;5063208;28;20432;-80
2021/01/28 09:22:03;;;;;;;25.13;17.43;;;3.80;89.10;;;;;;5054900;28;20568;-77
2021/01/28 09:24:44;;;;;;;24.30;16.90;;;3.80;88.60;;;;;;5041686;28;20478;-78
2021/01/28 09:27:28;;;;;;;24.20;16.93;;;3.70;89.10;;;;;;5047709;28;20512;-76
2021/01/28 09:29:55;;;;;;;23.50;16.07;;;3.70;89.00;;;;;;5045691;28;20465;-77
2021/01/28 09:32:33;;;;;;;21.70;15.20;;;3.70;90.20;;;;;;5046939;28;20484;-79
2021/01/28 09:35:13;;;;;;;25.00;16.60;;;3.70;90.60;;;;;;5044261;28;21420;-78
2021/01/28 09:37:41;;;;;;;22.07;14.33;;;3.70;90.60;;;;;;5041574;28;20449;-79
2021/01/28 09:40:29;;;;;;;19.97;14.90;;;3.80;90.50;;;;;;5047920;28;20457;-78
2021/01/28 09:43:24;;;;;;;17.80;13.93;;;3.70;90.90;;;;;;5047266;28;20444;-77
2021/01/28 09:46:14;;;;;;;20.03;13.37;;;3.70;91.60;;;;;;5039504;28;20461;-78
2021/01/28 09:48:42;;;;;;;22.57;18.00;;;3.70;91.90;;;;;;5049398;28;20517;-80
2021/01/28 09:51:11;;;;;;;21.67;15.03;;;3.70;92.00;;;;;;5061190;28;20477;-81
2021/01/28 09:53:38;;;;;;;23.35;17.52;;;3.70;92.00;;;;;;5055276;28;20437;-80
2021/01/28 09:56:05;;;;;;;20.58;16.65;;;3.80;92.20;;;;;;5042119;28;21019;-79
2021/01/28 09:58:32;;;;;;;18.60;13.37;;;3.70;91.70;;;;;;5047315;28;20202;-79
2021/01/28 10:00:58;;;;;;;22.57;14.80;;;3.70;91.90;;;;;;5046543;28;20469;-79
2021/01/28 10:03:25;;;;;;;20.10;13.50;;;3.80;92.20;;;;;;5044933;28;20492;-79
2021/01/28 10:05:53;;;;;;;14.57;11.10;;;3.80;92.30;;;;;;5047991;28;20492;-79
2021/01/28 10:08:20;;;;;;;19.53;12.40;;;3.80;92.50;;;;;;5049866;28;20463;-76
2021/01/28 10:10:47;;;;;;;17.20;12.50;;;3.80;92.30;;;;;;5045685;28;20807;-78
2021/01/28 10:13:16;;;;;;;16.80;12.13;;;3.80;92.70;;;;;;5046645;28;20788;-77
2021/01/28 10:15:43;;;;;;;17.83;13.80;;;3.70;92.60;;;;;;5045624;28;20494;-78
2021/01/28 10:18:10;;;;;;;20.33;12.57;;;3.70;93.00;;;;;;5049969;28;20301;-77
2021/01/28 10:20:40;;;;;;;15.30;10.47;;;3.70;92.90;;;;;;5049383;28;20792;-80
2021/01/28 10:23:09;;;;;;;15.40;10.13;;;3.80;92.90;;;;;;5044712;28;20460;-79
2021/01/28 10:25:37;;;;;;;15.47;10.33;;;3.80;93.10;;;;;;5043954;28;20445;-79
2021/01/28 10:28:04;;;;;;;11.97;9.40;;;3.80;93.00;;;;;;5044357;28;20481;-78
2021/01/28 10:30:31;;;;;;;13.20;9.87;;;3.80;93.30;;;;;;5047103;28;20442;-78
2021/01/28 10:32:59;;;;;;;15.67;11.70;;;3.80;94.00;;;;;;5048557;28;20448;-82
2021/01/28 10:35:29;;;;;;;14.52;11.88;;;3.80;93.20;;;;;;5044499;28;20789;-78
2021/01/28 10:37:56;;;;;;;13.57;10.00;;;3.90;93.30;;;;;;5042616;28;20205;-78
2021/01/28 10:40:25;;;;;;;13.80;9.27;;;3.90;93.70;;;;;;5048576;28;20510;-79
2021/01/28 10:42:55;;;;;;;12.70;9.47;;;4.00;93.60;;;;;;5038825;28;20449;-78
2021/01/28 10:45:25;;;;;;;11.30;9.20;;;4.00;93.50;;;;;;5047705;28;20491;-80
2021/01/28 10:47:52;;;;;;;13.33;8.60;;;3.90;92.80;;;;;;5043766;28;20468;-80
2021/01/28 10:50:22;;;;;;;12.13;9.17;;;3.90;93.40;;;;;;5048257;28;20499;-79
2021/01/28 10:52:48;;;;;;;12.60;8.60;;;3.90;94.30;;;;;;5041963;28;20518;-83
2021/01/28 10:55:16;;;;;;;12.57;8.00;;;3.90;93.90;;;;;;5040056;28;20463;-81
2021/01/28 10:57:43;;;;;;;9.17;7.60;;;3.90;94.50;;;;;;5041516;28;21037;-77
2021/01/28 11:00:12;;;;;;;9.37;7.90;;;3.90;95.20;;;;;;5045147;28;20456;-79
2021/01/28 11:02:38;;;;;;;11.70;8.17;;;3.90;95.30;;;;;;5045657;28;20485;-79
2021/01/28 11:05:07;;;;;;;10.70;8.33;;;3.90;95.10;;;;;;5042093;28;20488;-77
2021/01/28 11:07:34;;;;;;;11.67;8.77;;;3.90;95.20;;;;;;5042958;28;20464;-79
2021/01/28 11:10:00;;;;;;;11.97;9.00;;;3.90;95.40;;;;;;5043684;28;20453;-79
2021/01/28 11:12:27;;;;;;;9.87;8.67;;;3.90;95.50;;;;;;5043962;28;20581;-78
2021/01/28 11:14:54;;;;;;;12.60;8.70;;;3.90;96.10;;;;;;5044487;28;20873;-78
2021/01/28 11:17:21;;;;;;;10.17;8.20;;;3.90;96.60;;;;;;5046107;28;20498;-78
2021/01/28 11:19:48;;;;;;;10.90;7.50;;;3.90;96.40;;;;;;5041869;28;20875;-80
2021/01/28 11:22:15;;;;;;;11.73;8.20;;;3.90;96.30;;;;;;5046491;28;20520;-78
2021/01/28 11:24:41;;;;;;;9.43;6.90;;;3.90;95.40;;;;;;5047194;28;20843;-80
2021/01/28 11:27:08;;;;;;;9.63;6.07;;;3.90;95.90;;;;;;5043189;28;20507;-79
2021/01/28 11:29:35;;;;;;;7.60;6.23;;;3.90;96.10;;;;;;5037556;28;20814;-78
2021/01/28 11:32:02;;;;;;;9.60;7.10;;;3.90;94.80;;;;;;5048898;28;20436;-80
2021/01/28 11:34:30;;;;;;;7.30;6.60;;;3.90;95.30;;;;;;5051339;28;20477;-79
2021/01/28 11:37:02;;;;;;;9.50;6.83;;;4.00;95.80;;;;;;5049539;28;20485;-80
2021/01/28 11:39:29;;;;;;;9.77;7.40;;;4.10;96.00;;;;;;5048671;28;20812;-80
2021/01/28 11:41:56;;;;;;;10.40;6.97;;;4.20;95.10;;;;;;5042066;28;20451;-80
2021/01/28 11:44:22;;;;;;;8.63;6.97;;;4.10;95.00;;;;;;5047805;28;20493;-77
2021/01/28 11:46:48;;;;;;;8.90;5.63;;;4.20;94.60;;;;;;5033858;28;20457;-80
2021/01/28 11:49:16;;;;;;;7.67;6.50;;;4.10;95.00;;;;;;5040928;28;20461;-78
2021/01/28 11:51:42;;;;;;;7.77;6.43;;;4.10;95.40;;;;;;5041531;28;20948;-79
2021/01/28 11:54:09;;;;;;;8.33;6.10;;;4.10;95.10;;;;;;5048853;28;20460;-78
2021/01/28 11:56:35;;;;;;;7.93;6.30;;;4.10;96.00;;;;;;5051733;28;20952;-78
2021/01/28 11:59:02;;;;;;;7.30;6.13;;;4.10;95.50;;;;;;5039894;28;20445;-78
2021/01/28 12:01:29;;;;;;;8.03;6.20;;;4.10;95.30;;;;;;5034274;28;20481;-78
2021/01/28 12:03:55;;;;;;;7.50;5.73;;;4.10;95.40;;;;;;5046314;28;20567;-78
2021/01/28 12:06:23;;;;;;;7.80;6.10;;;4.10;95.80;;;;;;5034466;28;20901;-80
2021/01/28 12:08:52;;;;;;;7.60;6.40;;;4.10;95.50;;;;;;5047223;28;20540;-84
2021/01/28 12:11:19;;;;;;;8.27;5.80;;;4.10;95.60;;;;;;5043627;28;20460;-78
2021/01/28 12:13:45;;;;;;;6.90;6.20;;;4.10;95.20;;;;;;5043387;28;20462;-79
2021/01/28 12:16:12;;;;;;;7.60;6.80;;;4.20;95.90;;;;;;5043192;28;20476;-79
2021/01/28 12:18:39;;;;;;;7.50;5.80;;;4.30;95.60;;;;;;5044976;28;20935;-78
2021/01/28 12:21:05;;;;;;;7.73;5.97;;;4.30;95.60;;;;;;5047011;28;20457;-77
2021/01/28 12:23:33;;;;;;;8.73;6.93;;;4.40;94.70;;;;;;5053169;28;20458;-78
2021/01/28 12:25:59;;;;;;;9.40;7.30;;;4.40;94.10;;;;;;5044623;28;20454;-80
2021/01/28 12:28:25;;;;;;;8.43;7.27;;;4.30;94.20;;;;;;5044576;28;20962;-77
2021/01/28 12:30:52;;;;;;;8.87;7.03;;;4.30;94.60;;;;;;5044137;28;20450;-85
2021/01/28 12:33:18;;;;;;;6.93;6.23;;;4.40;95.00;;;;;;5049712;28;20455;-82
2021/01/28 12:35:45;;;;;;;6.43;5.20;;;4.40;95.40;;;;;;5052018;28;20456;-82
2021/01/28 12:38:11;;;;;;;6.20;5.37;;;4.40;95.10;;;;;;5053931;28;21031;-83
2021/01/28 12:40:39;;;;;;;7.10;6.40;;;4.50;95.20;;;;;;5057650;28;20445;-77
2021/01/28 12:43:07;;;;;;;8.07;7.28;;;4.70;94.80;;;;;;5046489;28;20447;-80
2021/01/28 12:45:34;;;;;;;7.18;6.20;;;4.90;93.70;;;;;;5041591;28;20441;-79
2021/01/28 12:48:01;;;;;;;6.30;5.70;;;5.00;92.40;;;;;;5047819;28;20279;-81
2021/01/28 12:50:28;;;;;;;6.13;5.53;;;5.10;91.50;;;;;;5049579;28;20851;-83
2021/01/28 12:52:55;;;;;;;6.85;5.00;;;5.20;91.10;;;;;;5057767;28;20443;-79
2021/01/28 12:55:23;;;;;;;6.30;5.60;;;5.20;91.00;;;;;;5060730;28;20447;-85
2021/01/28 12:57:50;;;;;;;5.40;4.90;;;5.00;90.60;;;;;;5057062;28;20192;-84
2021/01/28 13:00:21;;;;;;;7.10;5.00;;;5.00;92.00;;;;;;5050775;28;20501;-85
2021/01/28 13:02:48;;;;;;;5.37;4.80;;;5.10;91.80;;;;;;5055925;28;20452;-84